Ahwaz, Iran
Current Conditions -  °F | °C
As of 8:00 AM on Saturday 25 Oct 2014 (Local Time) from OIAW Reporting Station
Clear Clear  
Wind Chill: 70°   Ceiling: Unl
Heat Index: 70°   Visibility: 5mi
Dew Point: 50°   Wind: 5mph
Humidity: 49%   Direction: 330°NNW
Pressure: 29.88"   Gusts: NA
Location:  31.34°N, 48.76°E
Report Text: OIAW 250400Z 33004KT 8000 NSC 21/10 Q1012
Loading
Personal Weather Stations






























Interactive Weather Map
Tropical Storm Tracking
New forecast layout! Learn more

10-Day Weather Forecast

Advertisements
Track Severe Weather on mobile